Main page
METAR-TAF:

METAR-TAF

Airports :

Glasgow Prestwick Airport

Glasgow-Prestwick, Scotland

latitude: 55-30N, longitude: 004-35W, elevation: 20 m

Current weather observation

The report was made 35 minutes ago, at 20:50 UTC
Wind 7 kt from the North/Northeast
Temperature 17°C
Humidity 68%
Pressure 1023 hPa
Visibility 10 km or more
Few clouds at a height of 3500 ft

METAR: EGPK 242050Z 03007KT 9999 FEW035 17/11 Q1023

Time: 22:25 (21:25 UTC)

Forecast

The report was made 4 hours and 29 minutes ago, at 16:56 UTC
Forecast valid from 24 at 18 UTC to 25 at 18 UTC
Wind 8 kt from the East/Northeast
Visibility 10 km or more
Few clouds at a height of 2000 ft

TAF: EGPK 241656Z 2418/2518 07008KT 9999 FEW020

Weather observations and forecasts of more than 4000 airports (METAR and TAF reports).

The available stations are represented by yellow and red dots on the map.

Hover mouse over dot to see the name of the station.

Then click to see weather observations and forecasts.

To change the map : click on the green buttons with a black cross to zoom in, on the green button with a dash to zoom out, or on the green arrows for adjacent maps.


METAR-TAF: